Terminal Aerodrome Forecast
Issued by NWS

Home | Current Version | Previous Version | Graphics & Text | Print | Product List | Glossary Off
Versions: 1 2 3 4 5 6 7 8 9 10 11 12 13 14

000
FTUS43 KDDC 131500 AAA
TAFHYS
TAF AMD
KHYS 131505Z 1315/1412 36025G35KT P6SM OVC007
      TEMPO 1315/1319 -SHRA
     FM131900 35025G33KT 6SM -RA OVC010
     FM140100 36018G25KT P6SM BKN025=

USA.gov is the U.S. government's official web portal to all federal, state and local government web resources and services.